Largo — PFNC — position and weather

sailwx.info

Track history (hours):
 
Tides and Currents Weather Stations Pressure Air Temp Water Temp Dewpoint Dewpoint Depression Visibility Wind Speed Wind Dir Waves Ship Positions

Largo

Last reported at 2017-Jun-24 09:00 UTC. Time now 2017-Jun-24 08:58 UTC.
Position N 28°53' W 013°27'.

Length 91 m; draft 5.5 m.

Type: Cargo ship. MMSI: 245645000.

Date/timePositionNaut miles runAvg speedWind from/ knotsBaromVisibWave heightAir tempDewpointWater temp
2017-Jun-24 09:00N 28°53' W 013°27'5 9.4
2017-Jun-24 08:30N 28°56' W 013°24'5 9.4
2017-Jun-24 08:00N 28°60' W 013°20'5 9.4
2017-Jun-24 07:29N 29°04' W 013°17'35 9.4
2017-Jun-24 03:47N 29°30' W 012°51'12 9.6
2017-Jun-24 02:29N 29°40' W 012°41'6 9.8
2017-Jun-24 01:52N 29°44' W 012°37'4 9.8
2017-Jun-24 01:30N 29°47' W 012°34'5 9.7
2017-Jun-24 01:00N 29°51' W 012°30'510.0
2017-Jun-24 00:30N 29°54' W 012°27'510.0
2017-Jun-24 00:00N 29°58' W 012°23'610.2
2017-Jun-23 23:27N 30°02' W 012°18'4 9.9
2017-Jun-23 23:00N 30°06' W 012°15'5 9.6
2017-Jun-23 22:30N 30°09' W 012°12'5 9.5
2017-Jun-23 22:00N 30°13' W 012°08'5 9.6
2017-Jun-23 21:30N 30°16' W 012°04'5 9.7
2017-Jun-23 21:00N 30°20' W 012°00'5 9.6
2017-Jun-23 20:30N 30°24' W 011°57'10 9.7
2017-Jun-23 19:29N 30°31' W 011°49'5 9.6
2017-Jun-23 19:00N 30°35' W 011°46'5 9.6
2017-Jun-23 18:30N 30°39' W 011°43'5 9.6
2017-Jun-23 18:00N 30°42' W 011°39'5 9.7
2017-Jun-23 17:30N 30°46' W 011°35'5 9.7
2017-Jun-23 17:00N 30°49' W 011°31'5 9.6
2017-Jun-23 16:30N 30°53' W 011°28'5 9.6
2017-Jun-23 16:00N 30°57' W 011°24'5 9.7
2017-Jun-23 15:30N 31°00' W 011°20'5 9.7
2017-Jun-23 15:00N 31°04' W 011°17'10 9.9
2017-Jun-23 14:00N 31°11' W 011°09'510.1
2017-Jun-23 13:30N 31°15' W 011°05'710.1
2017-Jun-23 12:51N 31°20' W 011°00'4 9.9
2017-Jun-23 12:29N 31°23' W 010°57'5 9.7
2017-Jun-23 12:00N 31°27' W 010°54'6 9.6
2017-Jun-23 11:24N 31°31' W 010°49'4 9.8
2017-Jun-23 11:00N 31°34' W 010°46'29 9.9
2017-Jun-23 08:02N 31°56' W 010°24'010.1
2017-Jun-23 08:00N 31°56' W 010°23'8 9.9
2017-Jun-23 07:12N 32°02' W 010°17'4 9.6
2017-Jun-23 06:48N 32°05' W 010°15'3 9.8
2017-Jun-23 06:27N 32°08' W 010°12'6 9.8
2017-Jun-23 05:48N 32°13' W 010°07'3 9.7
2017-Jun-23 05:30N 32°15' W 010°05'6 9.7
2017-Jun-23 04:51N 32°20' W 009°60'3 9.4
2017-Jun-23 04:30N 32°22' W 009°57'7 9.7
2017-Jun-23 03:46N 32°28' W 009°52'3 9.8
2017-Jun-23 03:29N 32°30' W 009°50'5 9.5
2017-Jun-23 03:00N 32°33' W 009°46'6 9.9
2017-Jun-23 02:26N 32°37' W 009°42'7 9.9
2017-Jun-23 01:44N 32°43' W 009°36'210.0
2017-Jun-23 01:29N 32°44' W 009°34'510.0
2017-Jun-23 00:59N 32°48' W 009°30'510.0
2017-Jun-23 00:27N 32°52' W 009°26'265 9.7
2017-Jun-21 21:03N 35°58' W 005°37'110.4
2017-Jun-21 21:00N 35°58' W 005°36'510.2
2017-Jun-21 20:30N 35°59' W 005°30'5 9.2
2017-Jun-21 20:01N 36°00' W 005°25'4 8.9
2017-Jun-21 19:31N 36°02' W 005°20'4 8.7
2017-Jun-21 19:00N 36°03' W 005°14'159 9.9
2017-Jun-21 02:52N 36°35' W 002°01'15 9.9
2017-Jun-21 01:22N 36°47' W 001°49'4 9.8
2017-Jun-21 01:00N 36°49' W 001°46'56 9.9
2017-Jun-20 19:20N 37°33' W 001°02'  
2017-Jun-17 20:53N 37°31' W 000°55'3 8.9
2017-Jun-17 20:30N 37°30' W 000°51'4 8.8
2017-Jun-17 20:00N 37°28' W 000°47'5 8.8
2017-Jun-17 19:29N 37°25' W 000°42'11 8.8
2017-Jun-17 18:14N 37°20' W 000°30'2 8.9
2017-Jun-17 17:59N 37°19' W 000°27'4 8.9
2017-Jun-17 17:29N 37°17' W 000°22'5 9.3
2017-Jun-17 17:00N 37°14' W 000°17'5 9.4
2017-Jun-17 16:30N 37°12' W 000°12'5 9.3
2017-Jun-17 16:00N 37°10' W 000°07'7 9.1
2017-Jun-17 15:16N 37°07' E 000°00'3 9.0
2017-Jun-17 14:56N 37°05' E 000°04'4 9.1
2017-Jun-17 14:27N 37°03' E 000°09'10 9.1
2017-Jun-17 13:22N 36°58' E 000°19'6 9.1
2017-Jun-17 12:43N 36°55' E 000°26'2 9.1
2017-Jun-17 12:27N 36°54' E 000°28'4 9.0
2017-Jun-17 12:00N 36°52' E 000°33'5 9.1
2017-Jun-17 11:30N 36°50' E 000°38'11 8.9
2017-Jun-17 10:18N 36°45' E 000°49'3 8.8
2017-Jun-17 10:00N 36°43' E 000°52'4 8.9
2017-Jun-17 09:30N 36°41' E 000°57'5 9.0
2017-Jun-17 08:59N 36°39' E 001°02'4 9.0
2017-Jun-17 08:30N 36°37' E 001°07'4 8.9
2017-Jun-17 08:00N 36°35' E 001°12'5 9.1
2017-Jun-17 07:30N 36°32' E 001°17'2 3.9
2017-Jun-17 06:58N 36°32' E 001°19'0 0.0
2017-Jun-17 06:28N 36°32' E 001°19'0 0.0
2017-Jun-17 03:55N 36°32' E 001°19'0 0.0
2017-Jun-17 03:28N 36°32' E 001°19'0 0.0
2017-Jun-17 02:58N 36°32' E 001°19'0 0.0
2017-Jun-17 02:28N 36°32' E 001°19'0 0.0
2017-Jun-17 01:58N 36°32' E 001°19'0 0.0
2017-Jun-17 01:28N 36°32' E 001°19'0 0.0
2017-Jun-17 00:59N 36°32' E 001°19'0 0.0
2017-Jun-17 00:28N 36°32' E 001°19'0 0.0
2017-Jun-16 23:46N 36°32' E 001°19'0 0.0
2017-Jun-16 23:28N 36°32' E 001°19'0 0.0
2017-Jun-16 22:58N 36°32' E 001°19'0 0.0
2017-Jun-16 22:23N 36°32' E 001°19'0 0.0
2017-Jun-16 14:07N 36°32' E 001°19'0 0.0
2017-Jun-16 08:58N 36°32' E 001°19'0 0.0
2017-Jun-16 08:26N 36°32' E 001°19'0 0.0
2017-Jun-16 07:55N 36°32' E 001°19'0 0.0
2017-Jun-16 07:19N 36°32' E 001°19'0 0.0
2017-Jun-16 06:37N 36°32' E 001°19'0 0.0
2017-Jun-16 06:25N 36°32' E 001°19'0 0.0
2017-Jun-16 05:56N 36°32' E 001°19'0 0.0
2017-Jun-16 05:30N 36°32' E 001°19'0 0.0
2017-Jun-16 04:31N 36°32' E 001°19'0 0.0
2017-Jun-16 04:19N 36°32' E 001°19'0 0.0
2017-Jun-16 03:57N 36°32' E 001°19'0 0.0
2017-Jun-16 03:27N 36°32' E 001°19'0 0.0
2017-Jun-16 02:51N 36°32' E 001°19'0 0.0
2017-Jun-16 02:25N 36°32' E 001°19'0 0.0
2017-Jun-16 01:55N 36°32' E 001°19'0 0.0
2017-Jun-16 01:19N 36°32' E 001°19'0 0.0
2017-Jun-16 00:55N 36°32' E 001°19'0 0.0
2017-Jun-16 00:25N 36°32' E 001°19'0 0.0
2017-Jun-15 23:55N 36°32' E 001°19'0 0.0
2017-Jun-15 23:28N 36°32' E 001°19'0 0.0
2017-Jun-15 22:49N 36°32' E 001°19'0 0.0
2017-Jun-15 22:25N 36°32' E 001°19'0 0.0
2017-Jun-15 21:24N 36°32' E 001°19'0 0.0
2017-Jun-15 20:55N 36°32' E 001°19'0 0.0
2017-Jun-15 20:25N 36°32' E 001°19'0 0.0
2017-Jun-15 20:00N 36°32' E 001°19'0 0.0
2017-Jun-15 19:14N 36°32' E 001°19'0 0.0
2017-Jun-15 18:55N 36°32' E 001°19'0 0.0
2017-Jun-15 18:26N 36°32' E 001°19'0 0.0
2017-Jun-15 17:55N 36°32' E 001°19'0 0.0
2017-Jun-15 17:29N 36°32' E 001°19'0 0.0
2017-Jun-15 16:49N 36°32' E 001°19'0 0.0
2017-Jun-15 15:55N 36°32' E 001°19'0 0.0
2017-Jun-15 15:30N 36°32' E 001°19'0 0.0
2017-Jun-15 14:43N 36°32' E 001°19'0 0.0
2017-Jun-15 13:13N 36°32' E 001°19'0 0.0
2017-Jun-15 03:25N 36°32' E 001°19'0 0.0
2017-Jun-15 01:55N 36°32' E 001°19'0 0.0
2017-Jun-15 01:25N 36°32' E 001°19'0 0.0
2017-Jun-15 00:55N 36°32' E 001°19'0 0.0
2017-Jun-15 00:24N 36°32' E 001°19'0 0.0
2017-Jun-14 23:49N 36°32' E 001°19'0 0.0
2017-Jun-14 23:25N 36°32' E 001°19'0 0.0
2017-Jun-14 22:57N 36°32' E 001°19'0 0.0
2017-Jun-14 18:39N 36°32' E 001°19'0 0.0
2017-Jun-14 18:20N 36°32' E 001°19'  
Track history (hours):
 
Tides and Currents Weather Stations Pressure Air Temp Water Temp Dewpoint Dewpoint Depression Visibility Wind Speed Wind Dir Waves Ship Positions

Largo

Last reported at 2017-Jun-24 09:00 UTC. Time now 2017-Jun-24 08:58 UTC.
Position N 28°53' W 013°27'.

Length 91 m; draft 5.5 m.

Type: Cargo ship. MMSI: 245645000.

Date/timePositionNaut miles runAvg speedWind from/ knotsBaromVisibWave heightAir tempDewpointWater temp
2017-Jun-24 09:00N 28°53' W 013°27'5 9.4
2017-Jun-24 08:30N 28°56' W 013°24'5 9.4
2017-Jun-24 08:00N 28°60' W 013°20'5 9.4
2017-Jun-24 07:29N 29°04' W 013°17'35 9.4
2017-Jun-24 03:47N 29°30' W 012°51'12 9.6
2017-Jun-24 02:29N 29°40' W 012°41'6 9.8
2017-Jun-24 01:52N 29°44' W 012°37'4 9.8
2017-Jun-24 01:30N 29°47' W 012°34'5 9.7
2017-Jun-24 01:00N 29°51' W 012°30'510.0
2017-Jun-24 00:30N 29°54' W 012°27'510.0
2017-Jun-24 00:00N 29°58' W 012°23'610.2
2017-Jun-23 23:27N 30°02' W 012°18'4 9.9
2017-Jun-23 23:00N 30°06' W 012°15'5 9.6
2017-Jun-23 22:30N 30°09' W 012°12'5 9.5
2017-Jun-23 22:00N 30°13' W 012°08'5 9.6
2017-Jun-23 21:30N 30°16' W 012°04'5 9.7
2017-Jun-23 21:00N 30°20' W 012°00'5 9.6
2017-Jun-23 20:30N 30°24' W 011°57'10 9.7
2017-Jun-23 19:29N 30°31' W 011°49'5 9.6
2017-Jun-23 19:00N 30°35' W 011°46'5 9.6
2017-Jun-23 18:30N 30°39' W 011°43'5 9.6
2017-Jun-23 18:00N 30°42' W 011°39'5 9.7
2017-Jun-23 17:30N 30°46' W 011°35'5 9.7
2017-Jun-23 17:00N 30°49' W 011°31'5 9.6
2017-Jun-23 16:30N 30°53' W 011°28'5 9.6
2017-Jun-23 16:00N 30°57' W 011°24'5 9.7
2017-Jun-23 15:30N 31°00' W 011°20'5 9.7
2017-Jun-23 15:00N 31°04' W 011°17'10 9.9
2017-Jun-23 14:00N 31°11' W 011°09'510.1
2017-Jun-23 13:30N 31°15' W 011°05'710.1
2017-Jun-23 12:51N 31°20' W 011°00'4 9.9
2017-Jun-23 12:29N 31°23' W 010°57'5 9.7
2017-Jun-23 12:00N 31°27' W 010°54'6 9.6
2017-Jun-23 11:24N 31°31' W 010°49'4 9.8
2017-Jun-23 11:00N 31°34' W 010°46'29 9.9
2017-Jun-23 08:02N 31°56' W 010°24'010.1
2017-Jun-23 08:00N 31°56' W 010°23'8 9.9
2017-Jun-23 07:12N 32°02' W 010°17'4 9.6
2017-Jun-23 06:48N 32°05' W 010°15'3 9.8
2017-Jun-23 06:27N 32°08' W 010°12'6 9.8
2017-Jun-23 05:48N 32°13' W 010°07'3 9.7
2017-Jun-23 05:30N 32°15' W 010°05'6 9.7
2017-Jun-23 04:51N 32°20' W 009°60'3 9.4
2017-Jun-23 04:30N 32°22' W 009°57'7 9.7
2017-Jun-23 03:46N 32°28' W 009°52'3 9.8
2017-Jun-23 03:29N 32°30' W 009°50'5 9.5
2017-Jun-23 03:00N 32°33' W 009°46'6 9.9
2017-Jun-23 02:26N 32°37' W 009°42'7 9.9
2017-Jun-23 01:44N 32°43' W 009°36'210.0
2017-Jun-23 01:29N 32°44' W 009°34'510.0
2017-Jun-23 00:59N 32°48' W 009°30'510.0
2017-Jun-23 00:27N 32°52' W 009°26'265 9.7
2017-Jun-21 21:03N 35°58' W 005°37'110.4
2017-Jun-21 21:00N 35°58' W 005°36'510.2
2017-Jun-21 20:30N 35°59' W 005°30'5 9.2
2017-Jun-21 20:01N 36°00' W 005°25'4 8.9
2017-Jun-21 19:31N 36°02' W 005°20'4 8.7
2017-Jun-21 19:00N 36°03' W 005°14'159 9.9
2017-Jun-21 02:52N 36°35' W 002°01'15 9.9
2017-Jun-21 01:22N 36°47' W 001°49'4 9.8
2017-Jun-21 01:00N 36°49' W 001°46'56 9.9
2017-Jun-20 19:20N 37°33' W 001°02'  
2017-Jun-17 20:53N 37°31' W 000°55'3 8.9
2017-Jun-17 20:30N 37°30' W 000°51'4 8.8
2017-Jun-17 20:00N 37°28' W 000°47'5 8.8
2017-Jun-17 19:29N 37°25' W 000°42'11 8.8
2017-Jun-17 18:14N 37°20' W 000°30'2 8.9
2017-Jun-17 17:59N 37°19' W 000°27'4 8.9
2017-Jun-17 17:29N 37°17' W 000°22'5 9.3
2017-Jun-17 17:00N 37°14' W 000°17'5 9.4
2017-Jun-17 16:30N 37°12' W 000°12'5 9.3
2017-Jun-17 16:00N 37°10' W 000°07'7 9.1
2017-Jun-17 15:16N 37°07' E 000°00'3 9.0
2017-Jun-17 14:56N 37°05' E 000°04'4 9.1
2017-Jun-17 14:27N 37°03' E 000°09'10 9.1
2017-Jun-17 13:22N 36°58' E 000°19'6 9.1
2017-Jun-17 12:43N 36°55' E 000°26'2 9.1
2017-Jun-17 12:27N 36°54' E 000°28'4 9.0
2017-Jun-17 12:00N 36°52' E 000°33'5 9.1
2017-Jun-17 11:30N 36°50' E 000°38'11 8.9
2017-Jun-17 10:18N 36°45' E 000°49'3 8.8
2017-Jun-17 10:00N 36°43' E 000°52'4 8.9
2017-Jun-17 09:30N 36°41' E 000°57'5 9.0
2017-Jun-17 08:59N 36°39' E 001°02'4 9.0
2017-Jun-17 08:30N 36°37' E 001°07'4 8.9
2017-Jun-17 08:00N 36°35' E 001°12'5 9.1
2017-Jun-17 07:30N 36°32' E 001°17'2 3.9
2017-Jun-17 06:58N 36°32' E 001°19'0 0.0
2017-Jun-17 06:28N 36°32' E 001°19'0 0.0
2017-Jun-17 03:55N 36°32' E 001°19'0 0.0
2017-Jun-17 03:28N 36°32' E 001°19'0 0.0
2017-Jun-17 02:58N 36°32' E 001°19'0 0.0
2017-Jun-17 02:28N 36°32' E 001°19'0 0.0
2017-Jun-17 01:58N 36°32' E 001°19'0 0.0
2017-Jun-17 01:28N 36°32' E 001°19'0 0.0
2017-Jun-17 00:59N 36°32' E 001°19'0 0.0
2017-Jun-17 00:28N 36°32' E 001°19'0 0.0
2017-Jun-16 23:46N 36°32' E 001°19'0 0.0
2017-Jun-16 23:28N 36°32' E 001°19'0 0.0
2017-Jun-16 22:58N 36°32' E 001°19'0 0.0
2017-Jun-16 22:23N 36°32' E 001°19'0 0.0
2017-Jun-16 14:07N 36°32' E 001°19'0 0.0
2017-Jun-16 08:58N 36°32' E 001°19'0 0.0
2017-Jun-16 08:26N 36°32' E 001°19'0 0.0
2017-Jun-16 07:55N 36°32' E 001°19'0 0.0
2017-Jun-16 07:19N 36°32' E 001°19'0 0.0
2017-Jun-16 06:37N 36°32' E 001°19'0 0.0
2017-Jun-16 06:25N 36°32' E 001°19'0 0.0
2017-Jun-16 05:56N 36°32' E 001°19'0 0.0
2017-Jun-16 05:30N 36°32' E 001°19'0 0.0
2017-Jun-16 04:31N 36°32' E 001°19'0 0.0
2017-Jun-16 04:19N 36°32' E 001°19'0 0.0
2017-Jun-16 03:57N 36°32' E 001°19'0 0.0
2017-Jun-16 03:27N 36°32' E 001°19'0 0.0
2017-Jun-16 02:51N 36°32' E 001°19'0 0.0
2017-Jun-16 02:25N 36°32' E 001°19'0 0.0
2017-Jun-16 01:55N 36°32' E 001°19'0 0.0
2017-Jun-16 01:19N 36°32' E 001°19'0 0.0
2017-Jun-16 00:55N 36°32' E 001°19'0 0.0
2017-Jun-16 00:25N 36°32' E 001°19'0 0.0
2017-Jun-15 23:55N 36°32' E 001°19'0 0.0
2017-Jun-15 23:28N 36°32' E 001°19'0 0.0
2017-Jun-15 22:49N 36°32' E 001°19'0 0.0
2017-Jun-15 22:25N 36°32' E 001°19'0 0.0
2017-Jun-15 21:24N 36°32' E 001°19'0 0.0
2017-Jun-15 20:55N 36°32' E 001°19'0 0.0
2017-Jun-15 20:25N 36°32' E 001°19'0 0.0
2017-Jun-15 20:00N 36°32' E 001°19'0 0.0
2017-Jun-15 19:14N 36°32' E 001°19'0 0.0
2017-Jun-15 18:55N 36°32' E 001°19'0 0.0
2017-Jun-15 18:26N 36°32' E 001°19'0 0.0
2017-Jun-15 17:55N 36°32' E 001°19'0 0.0
2017-Jun-15 17:29N 36°32' E 001°19'0 0.0
2017-Jun-15 16:49N 36°32' E 001°19'0 0.0
2017-Jun-15 15:55N 36°32' E 001°19'0 0.0
2017-Jun-15 15:30N 36°32' E 001°19'0 0.0
2017-Jun-15 14:43N 36°32' E 001°19'0 0.0
2017-Jun-15 13:13N 36°32' E 001°19'0 0.0
2017-Jun-15 03:25N 36°32' E 001°19'0 0.0
2017-Jun-15 01:55N 36°32' E 001°19'0 0.0
2017-Jun-15 01:25N 36°32' E 001°19'0 0.0
2017-Jun-15 00:55N 36°32' E 001°19'0 0.0
2017-Jun-15 00:24N 36°32' E 001°19'0 0.0
2017-Jun-14 23:49N 36°32' E 001°19'0 0.0
2017-Jun-14 23:25N 36°32' E 001°19'0 0.0
2017-Jun-14 22:57N 36°32' E 001°19'0 0.0
2017-Jun-14 18:39N 36°32' E 001°19'0 0.0
2017-Jun-14 18:20N 36°32' E 001°19'  

Dump ship's entire track history